logo tempoitalia

Diretta Meteo Stephenville-Clark Fld Tx, Stati Uniti (USA)lunedì 31 agosto ore 01:35

Mappa
Sereno 27 °C Sereno 24 Ore: T.min 23 T.max 38
Ponente Sud Km/h 9.3 Punto di rugiada: 17 °C Umidità: 54% Visibilità: 10 Km
Il sole sorge alle: 07:07 Il sole tramonta alle: 19:58
31 Agosto 2026 01:35 tempo osservato: Sereno Sereno 27 54 1017 vento: Nord S 9.3
31 Agosto 2026 01:15 tempo osservato: Nuvoloso Nuvoloso 27 50 1016 vento: Nord S 9.3
31 Agosto 2026 00:55 tempo osservato: Sereno Sereno 27 47 1017 vento: Nord S 9.3
31 Agosto 2026 00:35 tempo osservato: Sereno Sereno 27 47 1016 vento: Nord S/SE 7.4
31 Agosto 2026 00:15 tempo osservato: Sereno Sereno 27 47 1016 vento: Nord N 5.5
30 Agosto 2026 23:55 tempo osservato: Sereno Sereno 28 45 1016 vento: Nord N 5.5
30 Agosto 2026 23:35 tempo osservato: Sereno Sereno 28 45 1016 vento: Nord S/SE 7.4
30 Agosto 2026 23:15 tempo osservato: Nuvoloso Nuvoloso 28 45 1016 vento: Nord SE 7.4
30 Agosto 2026 22:55 tempo osservato: Nuvoloso Nuvoloso 29 39 1016 vento: Nord S/SE 7.4
30 Agosto 2026 22:35 tempo osservato: Sereno Sereno 29 39 1016 vento: Nord SE 7.4
30 Agosto 2026 22:15 tempo osservato: Sereno Sereno 30 37 1016 vento: Nord SE 7.4
30 Agosto 2026 21:55 tempo osservato: Nuvoloso Nuvoloso 31 35 1015 vento: Nord SE 11.1
30 Agosto 2026 21:35 tempo osservato: Sereno Sereno 31 35 1015 vento: Nord SE 11.1
30 Agosto 2026 21:15 tempo osservato: Sereno Sereno 31 33 1015 vento: Nord SE 13
30 Agosto 2026 20:55 tempo osservato: Sereno Sereno 32 31 1015 vento: Nord SE 13
30 Agosto 2026 20:35 tempo osservato: Sereno Sereno 32 31 1014 vento: Nord SE 11.1
30 Agosto 2026 20:15 tempo osservato: Sereno Sereno 33 29 1014 vento: Nord SE 14.8
30 Agosto 2026 19:55 tempo osservato: Sereno Sereno 34 28 1014 vento: Nord SE 13
30 Agosto 2026 19:35 tempo osservato: Nuvoloso Nuvoloso 35 24 1014 vento: Nord SE 14.8
30 Agosto 2026 19:15 tempo osservato: Nuvoloso Nuvoloso 36 22 1014 vento: Nord SE 14.8
30 Agosto 2026 18:55 tempo osservato: Sereno Sereno 36 22 1014 vento: Nord S/SE 14.8
30 Agosto 2026 18:35 tempo osservato: Sereno Sereno 37 20 1014 vento: Nord SE 13
30 Agosto 2026 18:15 tempo osservato: Nuvoloso Nuvoloso 37 20 1014 vento: Nord S/SE 13
30 Agosto 2026 17:55 tempo osservato: Sereno Sereno 37 19 1014 vento: Nord S 9.3
30 Agosto 2026 17:35 tempo osservato: Sereno Sereno 38 18 1014 vento: Nord S/SE 9.3
30 Agosto 2026 17:15 tempo osservato: Sereno Sereno 38 18 1014 vento: Nord SE 13
30 Agosto 2026 16:55 tempo osservato: Sereno Sereno 38 19 1014 vento: Nord S 11.1
30 Agosto 2026 16:35 tempo osservato: Sereno Sereno 38 18 1015 vento: Nord SE 14.8
30 Agosto 2026 16:15 tempo osservato: Sereno Sereno 38 18 1015 vento: Nord S 13
30 Agosto 2026 15:55 tempo osservato: Sereno Sereno 38 17 1015 vento: Nord SE 14.8
30 Agosto 2026 15:35 tempo osservato: Sereno Sereno 38 18 1015 vento: Nord SE 14.8
30 Agosto 2026 15:15 tempo osservato: Sereno Sereno 37 20 1016 vento: Nord S 14.8
30 Agosto 2026 14:55 tempo osservato: Sereno Sereno 37 20 1016 vento: Nord E/SE 18.5
30 Agosto 2026 14:35 tempo osservato: Sereno Sereno 37 20 1016 vento: Nord S/SE 13
30 Agosto 2026 14:15 tempo osservato: Sereno Sereno 38 19 1016 vento: Nord SE 13
30 Agosto 2026 13:55 tempo osservato: Sereno Sereno 37 22 1017 vento: Nord S/SE 14.8
30 Agosto 2026 13:35 tempo osservato: Sereno Sereno 37 23 1017 vento: Nord S 9.3
30 Agosto 2026 13:15 tempo osservato: Sereno Sereno 36 25 1017 vento: Nord S/SO 14.8
30 Agosto 2026 12:55 tempo osservato: Sereno Sereno 36 26 1018 vento: Nord S 16.7
30 Agosto 2026 12:35 tempo osservato: Sereno Sereno 36 26 1018 vento: Nord S/SE 11.1
30 Agosto 2026 12:15 tempo osservato: Nuvoloso Nuvoloso 35 30 1018 vento: Nord SE 11.1
30 Agosto 2026 11:55 tempo osservato: Nuvoloso Nuvoloso 34 34 1019 vento: Nord S/SE 14.8
30 Agosto 2026 11:35 tempo osservato: Sereno Sereno 34 36 1019 vento: Nord S/SO 14.8
30 Agosto 2026 11:15 tempo osservato: Sereno Sereno 33 38 1019 vento: Nord S 14.8
30 Agosto 2026 10:55 tempo osservato: Sereno Sereno 33 38 1019 vento: Nord S 13
30 Agosto 2026 10:35 tempo osservato: Sereno Sereno 32 43 1019 vento: Nord S 13
30 Agosto 2026 10:15 tempo osservato: Sereno Sereno 32 43 1019 vento: Nord S/SO 11.1
30 Agosto 2026 09:55 tempo osservato: Sereno Sereno 31 45 1019 vento: Nord S/SO 11.1
30 Agosto 2026 09:35 tempo osservato: Sereno Sereno 30 48 1019 vento: Nord SO 13
30 Agosto 2026 09:15 tempo osservato: Sereno Sereno 29 51 1019 vento: Nord S/SO 11.1
30 Agosto 2026 08:55 tempo osservato: Sereno Sereno 27 61 1019 vento: Nord N 5.5
30 Agosto 2026 08:35 tempo osservato: Sereno Sereno 25 69 1018 vento: Nord N 0
30 Agosto 2026 08:15 tempo osservato: Nuvoloso Nuvoloso 24 73 1018 vento: Nord N 0
30 Agosto 2026 07:55 tempo osservato: Sereno Sereno 24 73 1018 vento: Nord N 0
30 Agosto 2026 07:35 tempo osservato: Sereno Sereno 23 78 1018 vento: Nord N 0
30 Agosto 2026 07:15 tempo osservato: Nuvoloso Nuvoloso 23 73 1018 vento: Nord N 5.5
30 Agosto 2026 06:55 tempo osservato: Sereno Sereno 23 73 1017 vento: Nord N 5.5
30 Agosto 2026 06:35 tempo osservato: Nuvoloso Nuvoloso 23 73 1017 vento: Nord N 0
30 Agosto 2026 06:15 tempo osservato: Nuvoloso Nuvoloso 23 73 1017 vento: Nord S 7.4
30 Agosto 2026 05:55 tempo osservato: Nuvoloso Nuvoloso 23 73 1017 vento: Nord N 5.5
30 Agosto 2026 05:35 tempo osservato: Sereno Sereno 23 68 1017 vento: Nord N 5.5
30 Agosto 2026 05:15 tempo osservato: Sereno Sereno 23 68 1017 vento: Nord N 5.5
30 Agosto 2026 04:55 tempo osservato: Sereno Sereno 23 68 1017 vento: Nord N 5.5
30 Agosto 2026 04:35 tempo osservato: Sereno Sereno 23 68 1017 vento: Nord N 0
30 Agosto 2026 04:15 tempo osservato: Sereno Sereno 24 64 1017 vento: Nord N 0
30 Agosto 2026 03:55 tempo osservato: Sereno Sereno 24 60 1017 vento: Nord N 5.5
30 Agosto 2026 03:35 tempo osservato: Nuvoloso Nuvoloso 24 60 1017 vento: Nord N 0
30 Agosto 2026 03:15 tempo osservato: Nuvoloso Nuvoloso 24 60 1017 vento: Nord N 0
30 Agosto 2026 02:55 tempo osservato: Sereno Sereno 25 57 1017 vento: Nord N 5.5
30 Agosto 2026 02:35 tempo osservato: Sereno Sereno 25 57 1017 vento: Nord N 0
30 Agosto 2026 02:15 tempo osservato: Sereno Sereno 25 57 1017 vento: Nord N 5.5
30 Agosto 2026 01:55 tempo osservato: Sereno Sereno 26 54 1017 vento: Nord N 5.5
30 Agosto 2026 01:35 tempo osservato: Nuvoloso Nuvoloso 26 50 1017 vento: Nord N 0